Rollingstone, MN (55969)

1:00 PM CST on January 27, 2015 (GMT -0600)
Altura,MN | Change Station
CLOSE
Current Station
Personal Weather Station
Location: Altura, MN
Elevation: 1165 ft
Nearby Weather Stations

Elev 1165 ft 44.07 °N, 91.94 °W | Updated 0 second ago

Overcast
Overcast
29.8 °F
Feels Like 30 °F
N
1.6
Wind Variable Wind from ENE
Gusts 3.1 mph

Today
High -- | Low -- °F
--% Chance of Precip.
Yesterday
High -- | Low -- °F
Precip. -- in
7:30 AM 5:10 PM
First Quarter, 56% visible
Pressure 30.21 in
Visibility 10.0 miles
Clouds Overcast 2000 ft
Windchill 30 °F
Dew Point 22 °F
Humidity 71%
Rainfall 0.00 in
Snow Depth Not available.
UV 1 out of 12
Pollen .10 out of 12
Air Quality Not available.
Flu Activity Not available.
METAR KONA 271855Z AUTO 00000KT 10SM OVC020 M01/M05 A3021 RMK AO2

More Conditions Fewer Conditions

Pressure 30.21 in
Visibility 10.0 miles
Clouds Overcast 2000 ft
Windchill 30 °F
Dew Point 22 °F
Humidity 71%
Rainfall 0.00 in
Snow Depth Not available.
UV 1 out of 12
Pollen .10 out of 12
Air Quality Not available.
Flu Activity Not available.
METAR KONA 271855Z AUTO 00000KT 10SM OVC020 M01/M05 A3021 RMK AO2

More Conditions Fewer Conditions

10-Day Weather Forecast

Almanac

Astronomy

Jan. 27, 2015 Rise Set
Actual Time
Civil Twilight
Nautical Twilight
Astronomical Twilight
Moon
Length of Visible Light
Length of Day
Tomorrow will be .
, % of the Moon is Illuminated

Today's Extremes

State Highs State Lows

Community

WunderPhotos

Upload Photos

1,790,783 photos uploaded!

WunderBlogs® & News

Nearby

Air Quality

  Air Quality AQ Index Pollutant
Not available.

Snow Depth

Station Depth Elevation

Earthquake Activity

City Distance Mag. Time & Date
Minimum magnitude displayed is 2.5.

Coastal Water Temperatures

Place Temperature

Nearby Weather Stations